Terminal Aerodrome Forecast
Issued by NWS New Orleans/Baton Rouge, LA

Home | Current Version | Previous Version | Text Only | Print | Product List | Glossary On
Versions: 1 2 3 4 5 6 7 8 9 10 11 12 13 14 15 16 17 18 19 20 21 22 23 24 25 26 27 28 29 30
000
FTUS44 KLIX 210500
TAFNEW
TAF
KNEW 210529Z 2106/2206 04011KT P6SM OVC013
     FM211200 04011KT P6SM OVC015
     FM211400 05010KT P6SM OVC025
     FM211800 06006KT P6SM OVC025
     FM212300 08008KT P6SM OVC090=

USA.gov is the U.S. government's official web portal to all federal, state and local government web resources and services.